Aviation Digital Data Service (ADDS)

Output produced by METARs form (1956 UTC 28 April 2017)
found at http://aviationweather.gov/adds/metars/
 
KBTV 281739Z 2818/2918 30007KT P6SM SCT060 SCT200 
     FM290000 VRB03KT P6SM SCT150 BKN200 
     FM290600 18004KT P6SM OVC100 
     FM291400 22009KT P6SM BKN070